sensor_id;sensor_type;location;lat;lon;timestamp;temperature;humidity
68177;DHT22;56478;50.982;7.032;2022-08-02T00:02:09;18.63;73.39
68177;DHT22;56478;50.982;7.032;2022-08-02T00:04:34;18.61;73.46
68177;DHT22;56478;50.982;7.032;2022-08-02T00:07:00;18.55;73.50
68177;DHT22;56478;50.982;7.032;2022-08-02T00:09:25;18.49;73.35
68177;DHT22;56478;50.982;7.032;2022-08-02T00:11:51;18.52;73.15
68177;DHT22;56478;50.982;7.032;2022-08-02T00:14:16;18.49;73.85
68177;DHT22;56478;50.982;7.032;2022-08-02T00:16:42;18.47;73.57
68177;DHT22;56478;50.982;7.032;2022-08-02T00:19:07;18.45;73.89
68177;DHT22;56478;50.982;7.032;2022-08-02T00:21:32;18.43;74.33
68177;DHT22;56478;50.982;7.032;2022-08-02T00:23:58;18.43;74.72
68177;DHT22;56478;50.982;7.032;2022-08-02T00:26:23;18.37;74.90
68177;DHT22;56478;50.982;7.032;2022-08-02T00:28:49;18.37;74.48
68177;DHT22;56478;50.982;7.032;2022-08-02T00:31:14;18.43;74.38
68177;DHT22;56478;50.982;7.032;2022-08-02T00:33:39;18.40;74.36
68177;DHT22;56478;50.982;7.032;2022-08-02T00:36:05;18.35;74.54
68177;DHT22;56478;50.982;7.032;2022-08-02T00:38:30;18.34;74.30
68177;DHT22;56478;50.982;7.032;2022-08-02T00:40:55;18.28;74.60
68177;DHT22;56478;50.982;7.032;2022-08-02T00:43:21;18.30;74.57
68177;DHT22;56478;50.982;7.032;2022-08-02T00:45:46;18.26;74.37
68177;DHT22;56478;50.982;7.032;2022-08-02T00:48:12;18.26;74.24
68177;DHT22;56478;50.982;7.032;2022-08-02T00:50:37;18.20;74.54
68177;DHT22;56478;50.982;7.032;2022-08-02T00:53:03;18.20;74.91
68177;DHT22;56478;50.982;7.032;2022-08-02T00:55:29;18.14;75.01
68177;DHT22;56478;50.982;7.032;2022-08-02T00:57:55;18.09;74.81
68177;DHT22;56478;50.982;7.032;2022-08-02T01:00:20;18.06;74.95
68177;DHT22;56478;50.982;7.032;2022-08-02T01:02:46;18.06;75.43
68177;DHT22;56478;50.982;7.032;2022-08-02T01:05:12;18.06;75.16
68177;DHT22;56478;50.982;7.032;2022-08-02T01:07:37;18.04;75.03
68177;DHT22;56478;50.982;7.032;2022-08-02T01:10:03;18.06;75.60
68177;DHT22;56478;50.982;7.032;2022-08-02T01:12:28;18.07;75.10
68177;DHT22;56478;50.982;7.032;2022-08-02T01:14:54;18.10;75.45
68177;DHT22;56478;50.982;7.032;2022-08-02T01:17:33;18.02;75.74
68177;DHT22;56478;50.982;7.032;2022-08-02T01:30:12;17.96;76.05
68177;DHT22;56478;50.982;7.032;2022-08-02T01:32:40;17.93;75.97
68177;DHT22;56478;50.982;7.032;2022-08-02T01:37:34;17.97;75.79
68177;DHT22;56478;50.982;7.032;2022-08-02T01:40:04;17.97;76.02
68177;DHT22;56478;50.982;7.032;2022-08-02T01:42:30;17.93;76.17
68177;DHT22;56478;50.982;7.032;2022-08-02T01:44:56;17.92;76.03
68177;DHT22;56478;50.982;7.032;2022-08-02T01:47:25;17.90;76.17
68177;DHT22;56478;50.982;7.032;2022-08-02T01:49:52;17.86;76.34
68177;DHT22;56478;50.982;7.032;2022-08-02T01:52:19;17.85;76.25
68177;DHT22;56478;50.982;7.032;2022-08-02T01:54:46;17.87;76.49
68177;DHT22;56478;50.982;7.032;2022-08-02T01:57:13;17.81;76.12
68177;DHT22;56478;50.982;7.032;2022-08-02T01:59:40;17.82;75.89
68177;DHT22;56478;50.982;7.032;2022-08-02T02:02:07;17.83;75.87
68177;DHT22;56478;50.982;7.032;2022-08-02T02:04:33;17.81;75.97
68177;DHT22;56478;50.982;7.032;2022-08-02T02:06:59;17.85;75.98
68177;DHT22;56478;50.982;7.032;2022-08-02T02:09:26;17.81;76.23
68177;DHT22;56478;50.982;7.032;2022-08-02T02:11:53;17.82;76.20
68177;DHT22;56478;50.982;7.032;2022-08-02T02:14:20;17.82;76.17
68177;DHT22;56478;50.982;7.032;2022-08-02T02:16:47;17.79;75.94
68177;DHT22;56478;50.982;7.032;2022-08-02T02:19:15;17.78;76.17
68177;DHT22;56478;50.982;7.032;2022-08-02T02:21:40;17.76;76.22
68177;DHT22;56478;50.982;7.032;2022-08-02T02:24:06;17.76;76.17
68177;DHT22;56478;50.982;7.032;2022-08-02T02:26:32;17.71;76.17
68177;DHT22;56478;50.982;7.032;2022-08-02T02:29:00;17.72;76.08
68177;DHT22;56478;50.982;7.032;2022-08-02T02:31:26;17.71;76.05
68177;DHT22;56478;50.982;7.032;2022-08-02T02:33:57;17.64;76.24
68177;DHT22;56478;50.982;7.032;2022-08-02T02:36:23;17.62;76.49
68177;DHT22;56478;50.982;7.032;2022-08-02T02:38:50;17.55;76.82
68177;DHT22;56478;50.982;7.032;2022-08-02T02:41:15;17.48;76.62
68177;DHT22;56478;50.982;7.032;2022-08-02T02:43:43;17.45;77.06
68177;DHT22;56478;50.982;7.032;2022-08-02T02:46:08;17.48;76.99
68177;DHT22;56478;50.982;7.032;2022-08-02T02:48:34;17.45;77.04
68177;DHT22;56478;50.982;7.032;2022-08-02T02:51:02;17.44;76.99
68177;DHT22;56478;50.982;7.032;2022-08-02T02:53:27;17.42;77.34
68177;DHT22;56478;50.982;7.032;2022-08-02T02:55:53;17.42;77.13
68177;DHT22;56478;50.982;7.032;2022-08-02T02:58:19;17.42;77.07
68177;DHT22;56478;50.982;7.032;2022-08-02T03:00:45;17.37;76.95
68177;DHT22;56478;50.982;7.032;2022-08-02T03:03:28;17.38;77.21
68177;DHT22;56478;50.982;7.032;2022-08-02T03:05:55;17.31;77.13
68177;DHT22;56478;50.982;7.032;2022-08-02T03:08:20;17.30;77.43
68177;DHT22;56478;50.982;7.032;2022-08-02T03:10:46;17.30;77.46
68177;DHT22;56478;50.982;7.032;2022-08-02T03:13:11;17.23;77.71
68177;DHT22;56478;50.982;7.032;2022-08-02T03:15:37;17.20;77.81
68177;DHT22;56478;50.982;7.032;2022-08-02T03:18:04;17.20;77.34
68177;DHT22;56478;50.982;7.032;2022-08-02T03:20:31;17.19;77.64
68177;DHT22;56478;50.982;7.032;2022-08-02T03:22:57;17.16;77.60
68177;DHT22;56478;50.982;7.032;2022-08-02T03:25:22;17.17;77.80
68177;DHT22;56478;50.982;7.032;2022-08-02T03:27:48;17.17;77.88
68177;DHT22;56478;50.982;7.032;2022-08-02T03:30:13;17.14;77.80
68177;DHT22;56478;50.982;7.032;2022-08-02T03:32:39;17.13;77.74
68177;DHT22;56478;50.982;7.032;2022-08-02T03:35:06;17.10;78.03
68177;DHT22;56478;50.982;7.032;2022-08-02T03:37:32;17.10;78.26
68177;DHT22;56478;50.982;7.032;2022-08-02T03:39:58;17.07;77.88
68177;DHT22;56478;50.982;7.032;2022-08-02T03:42:24;17.06;78.12
68177;DHT22;56478;50.982;7.032;2022-08-02T03:44:50;17.02;77.99
68177;DHT22;56478;50.982;7.032;2022-08-02T03:47:17;17.06;78.44
68177;DHT22;56478;50.982;7.032;2022-08-02T03:49:43;17.03;78.11
68177;DHT22;56478;50.982;7.032;2022-08-02T03:52:08;17.06;78.12
68177;DHT22;56478;50.982;7.032;2022-08-02T03:54:34;17.00;78.45
68177;DHT22;56478;50.982;7.032;2022-08-02T03:56:59;16.93;78.32
68177;DHT22;56478;50.982;7.032;2022-08-02T03:59:25;16.97;78.68
68177;DHT22;56478;50.982;7.032;2022-08-02T04:01:50;16.95;78.84
68177;DHT22;56478;50.982;7.032;2022-08-02T04:04:15;16.93;78.50
68177;DHT22;56478;50.982;7.032;2022-08-02T04:06:41;16.88;78.50
68177;DHT22;56478;50.982;7.032;2022-08-02T04:09:06;16.86;79.33
68177;DHT22;56478;50.982;7.032;2022-08-02T04:11:32;16.83;79.33
68177;DHT22;56478;50.982;7.032;2022-08-02T04:14:01;16.86;79.26
68177;DHT22;56478;50.982;7.032;2022-08-02T04:16:37;16.86;78.96
68177;DHT22;56478;50.982;7.032;2022-08-02T04:19:04;16.88;78.91
68177;DHT22;56478;50.982;7.032;2022-08-02T04:21:31;16.88;78.83
68177;DHT22;56478;50.982;7.032;2022-08-02T04:23:58;16.85;78.60
68177;DHT22;56478;50.982;7.032;2022-08-02T04:26:24;16.88;78.73
68177;DHT22;56478;50.982;7.032;2022-08-02T04:28:50;16.92;78.96
68177;DHT22;56478;50.982;7.032;2022-08-02T04:31:16;16.90;78.45
68177;DHT22;56478;50.982;7.032;2022-08-02T04:33:41;16.88;78.40
68177;DHT22;56478;50.982;7.032;2022-08-02T04:36:07;16.88;78.38
68177;DHT22;56478;50.982;7.032;2022-08-02T04:38:34;16.92;78.92
68177;DHT22;56478;50.982;7.032;2022-08-02T04:41:00;17.02;78.45
68177;DHT22;56478;50.982;7.032;2022-08-02T04:43:25;17.02;78.38
68177;DHT22;56478;50.982;7.032;2022-08-02T04:45:52;17.07;78.24
68177;DHT22;56478;50.982;7.032;2022-08-02T04:48:18;17.10;78.14
68177;DHT22;56478;50.982;7.032;2022-08-02T04:50:44;17.09;78.20
68177;DHT22;56478;50.982;7.032;2022-08-02T04:53:09;17.13;78.51
68177;DHT22;56478;50.982;7.032;2022-08-02T04:55:35;17.14;78.42
68177;DHT22;56478;50.982;7.032;2022-08-02T04:58:00;17.17;78.09
68177;DHT22;56478;50.982;7.032;2022-08-02T05:00:26;17.23;78.44
68177;DHT22;56478;50.982;7.032;2022-08-02T05:02:52;17.23;77.83
68177;DHT22;56478;50.982;7.032;2022-08-02T05:05:18;17.26;77.85
68177;DHT22;56478;50.982;7.032;2022-08-02T05:07:43;17.27;77.73
68177;DHT22;56478;50.982;7.032;2022-08-02T05:10:09;17.23;77.88
68177;DHT22;56478;50.982;7.032;2022-08-02T05:12:36;17.27;78.33
68177;DHT22;56478;50.982;7.032;2022-08-02T05:15:01;17.24;78.15
68177;DHT22;56478;50.982;7.032;2022-08-02T05:17:27;17.27;78.10
68177;DHT22;56478;50.982;7.032;2022-08-02T05:19:52;17.34;78.10
68177;DHT22;56478;50.982;7.032;2022-08-02T05:22:17;17.45;78.02
68177;DHT22;56478;50.982;7.032;2022-08-02T05:24:43;17.52;78.10
68177;DHT22;56478;50.982;7.032;2022-08-02T05:27:09;17.59;77.35
68177;DHT22;56478;50.982;7.032;2022-08-02T05:29:34;17.58;77.11
68177;DHT22;56478;50.982;7.032;2022-08-02T05:31:59;17.64;77.24
68177;DHT22;56478;50.982;7.032;2022-08-02T05:34:25;17.61;77.30
68177;DHT22;56478;50.982;7.032;2022-08-02T05:36:50;17.58;77.46
68177;DHT22;56478;50.982;7.032;2022-08-02T05:39:16;17.66;77.46
68177;DHT22;56478;50.982;7.032;2022-08-02T05:41:41;17.78;77.19
68177;DHT22;56478;50.982;7.032;2022-08-02T05:44:07;17.92;76.61
68177;DHT22;56478;50.982;7.032;2022-08-02T05:46:32;18.11;75.74
68177;DHT22;56478;50.982;7.032;2022-08-02T05:48:58;18.27;75.30
68177;DHT22;56478;50.982;7.032;2022-08-02T05:51:36;18.34;75.38
68177;DHT22;56478;50.982;7.032;2022-08-02T05:56:37;18.51;74.96
68177;DHT22;56478;50.982;7.032;2022-08-02T06:01:51;18.65;73.95
68177;DHT22;56478;50.982;7.032;2022-08-02T06:04:23;18.72;72.97
68177;DHT22;56478;50.982;7.032;2022-08-02T06:06:49;18.69;73.05
68177;DHT22;56478;50.982;7.032;2022-08-02T06:09:16;18.80;72.83
68177;DHT22;56478;50.982;7.032;2022-08-02T06:11:45;18.85;72.79
68177;DHT22;56478;50.982;7.032;2022-08-02T06:14:11;18.89;72.55
68177;DHT22;56478;50.982;7.032;2022-08-02T06:16:37;18.95;72.59
68177;DHT22;56478;50.982;7.032;2022-08-02T06:19:03;18.92;72.63
68177;DHT22;56478;50.982;7.032;2022-08-02T06:21:29;18.90;72.70
68177;DHT22;56478;50.982;7.032;2022-08-02T06:23:55;19.00;72.39
68177;DHT22;56478;50.982;7.032;2022-08-02T06:26:23;18.99;72.27
68177;DHT22;56478;50.982;7.032;2022-08-02T06:28:48;18.97;72.34
68177;DHT22;56478;50.982;7.032;2022-08-02T06:31:15;19.06;72.21
68177;DHT22;56478;50.982;7.032;2022-08-02T06:33:41;19.20;71.65
68177;DHT22;56478;50.982;7.032;2022-08-02T06:36:07;19.35;71.33
68177;DHT22;56478;50.982;7.032;2022-08-02T06:38:45;19.54;70.79
68177;DHT22;56478;50.982;7.032;2022-08-02T06:41:13;19.77;69.82
68177;DHT22;56478;50.982;7.032;2022-08-02T06:46:22;20.38;68.08
68177;DHT22;56478;50.982;7.032;2022-08-02T06:48:48;20.59;67.44
68177;DHT22;56478;50.982;7.032;2022-08-02T06:51:13;20.83;66.71
68177;DHT22;56478;50.982;7.032;2022-08-02T06:53:39;21.06;65.56
68177;DHT22;56478;50.982;7.032;2022-08-02T06:56:04;21.37;64.92
68177;DHT22;56478;50.982;7.032;2022-08-02T06:58:30;22.98;60.22
68177;DHT22;56478;50.982;7.032;2022-08-02T07:00:55;25.28;53.28
68177;DHT22;56478;50.982;7.032;2022-08-02T07:03:20;26.42;49.40
68177;DHT22;56478;50.982;7.032;2022-08-02T07:05:46;27.70;45.81
68177;DHT22;56478;50.982;7.032;2022-08-02T07:08:15;29.28;43.05
68177;DHT22;56478;50.982;7.032;2022-08-02T07:10:40;29.84;41.33
68177;DHT22;56478;50.982;7.032;2022-08-02T07:13:06;30.50;40.22
68177;DHT22;56478;50.982;7.032;2022-08-02T07:15:31;31.16;38.03
68177;DHT22;56478;50.982;7.032;2022-08-02T07:17:57;32.29;35.96
68177;DHT22;56478;50.982;7.032;2022-08-02T07:20:22;33.33;34.18
68177;DHT22;56478;50.982;7.032;2022-08-02T07:22:47;34.11;33.57
68177;DHT22;56478;50.982;7.032;2022-08-02T07:25:13;33.98;33.60
68177;DHT22;56478;50.982;7.032;2022-08-02T07:27:38;35.05;31.73
68177;DHT22;56478;50.982;7.032;2022-08-02T07:30:04;35.33;30.58
68177;DHT22;56478;50.982;7.032;2022-08-02T07:32:30;34.49;32.46
68177;DHT22;56478;50.982;7.032;2022-08-02T07:34:56;34.71;31.89
68177;DHT22;56478;50.982;7.032;2022-08-02T07:37:29;35.64;30.61
68177;DHT22;56478;50.982;7.032;2022-08-02T07:39:54;35.33;31.70
68177;DHT22;56478;50.982;7.032;2022-08-02T07:42:20;36.08;29.70
68177;DHT22;56478;50.982;7.032;2022-08-02T07:44:45;35.86;30.62
68177;DHT22;56478;50.982;7.032;2022-08-02T07:47:11;36.29;29.91
68177;DHT22;56478;50.982;7.032;2022-08-02T07:49:36;35.86;30.02
68177;DHT22;56478;50.982;7.032;2022-08-02T07:52:02;36.83;29.08
68177;DHT22;56478;50.982;7.032;2022-08-02T07:54:27;37.80;27.19
68177;DHT22;56478;50.982;7.032;2022-08-02T07:56:52;37.90;27.34
68177;DHT22;56478;50.982;7.032;2022-08-02T07:59:18;36.98;28.34
68177;DHT22;56478;50.982;7.032;2022-08-02T08:01:44;36.36;28.68
68177;DHT22;56478;50.982;7.032;2022-08-02T08:04:09;38.18;26.91
68177;DHT22;56478;50.982;7.032;2022-08-02T08:06:35;37.80;27.06
68177;DHT22;56478;50.982;7.032;2022-08-02T08:09:00;36.66;27.85
68177;DHT22;56478;50.982;7.032;2022-08-02T08:11:25;36.62;30.13
68177;DHT22;56478;50.982;7.032;2022-08-02T08:13:51;37.59;27.93
68177;DHT22;56478;50.982;7.032;2022-08-02T08:16:16;38.70;26.46
68177;DHT22;56478;50.982;7.032;2022-08-02T08:18:42;39.46;25.76
68177;DHT22;56478;50.982;7.032;2022-08-02T08:21:07;41.14;23.48
68177;DHT22;56478;50.982;7.032;2022-08-02T08:23:34;41.21;22.47
68177;DHT22;56478;50.982;7.032;2022-08-02T08:25:59;40.53;23.98
68177;DHT22;56478;50.982;7.032;2022-08-02T08:28:24;40.56;23.54
68177;DHT22;56478;50.982;7.032;2022-08-02T08:30:50;41.93;22.46
68177;DHT22;56478;50.982;7.032;2022-08-02T08:33:15;40.69;23.48
68177;DHT22;56478;50.982;7.032;2022-08-02T08:35:40;39.96;24.48
68177;DHT22;56478;50.982;7.032;2022-08-02T08:38:06;41.52;22.91
68177;DHT22;56478;50.982;7.032;2022-08-02T08:40:32;41.90;22.36
68177;DHT22;56478;50.982;7.032;2022-08-02T08:42:57;42.63;21.35
68177;DHT22;56478;50.982;7.032;2022-08-02T08:45:23;40.86;23.82
68177;DHT22;56478;50.982;7.032;2022-08-02T08:48:01;41.41;22.76
68177;DHT22;56478;50.982;7.032;2022-08-02T08:50:30;40.25;23.83
68177;DHT22;56478;50.982;7.032;2022-08-02T08:53:04;40.24;26.38
68177;DHT22;56478;50.982;7.032;2022-08-02T08:55:30;41.45;23.04
68177;DHT22;56478;50.982;7.032;2022-08-02T08:57:56;40.22;24.94
68177;DHT22;56478;50.982;7.032;2022-08-02T09:00:22;41.05;24.21
68177;DHT22;56478;50.982;7.032;2022-08-02T09:02:47;39.97;25.06
68177;DHT22;56478;50.982;7.032;2022-08-02T09:05:14;39.58;25.38
68177;DHT22;56478;50.982;7.032;2022-08-02T09:07:40;40.22;25.76
68177;DHT22;56478;50.982;7.032;2022-08-02T09:13:04;40.29;24.36
68177;DHT22;56478;50.982;7.032;2022-08-02T09:15:30;41.34;23.36
68177;DHT22;56478;50.982;7.032;2022-08-02T09:17:55;40.02;24.97
68177;DHT22;56478;50.982;7.032;2022-08-02T09:20:21;39.86;26.64
68177;DHT22;56478;50.982;7.032;2022-08-02T09:22:53;40.01;24.62
68177;DHT22;56478;50.982;7.032;2022-08-02T09:25:29;42.24;23.67
68177;DHT22;56478;50.982;7.032;2022-08-02T09:27:55;43.41;21.56
68177;DHT22;56478;50.982;7.032;2022-08-02T09:30:20;43.11;21.81
68177;DHT22;56478;50.982;7.032;2022-08-02T09:32:46;42.36;23.26
68177;DHT22;56478;50.982;7.032;2022-08-02T09:35:12;43.00;21.59
68177;DHT22;56478;50.982;7.032;2022-08-02T09:37:39;41.97;23.02
68177;DHT22;56478;50.982;7.032;2022-08-02T09:40:04;43.05;22.71
68177;DHT22;56478;50.982;7.032;2022-08-02T09:42:30;41.94;23.61
68177;DHT22;56478;50.982;7.032;2022-08-02T09:44:58;40.53;24.02
68177;DHT22;56478;50.982;7.032;2022-08-02T09:47:24;42.00;22.81
68177;DHT22;56478;50.982;7.032;2022-08-02T09:49:50;41.83;23.45
68177;DHT22;56478;50.982;7.032;2022-08-02T09:52:20;42.97;21.67
68177;DHT22;56478;50.982;7.032;2022-08-02T09:54:46;39.74;25.03
68177;DHT22;56478;50.982;7.032;2022-08-02T09:57:11;42.00;22.84
68177;DHT22;56478;50.982;7.032;2022-08-02T09:59:38;42.74;21.98
68177;DHT22;56478;50.982;7.032;2022-08-02T10:02:16;41.65;24.24
68177;DHT22;56478;50.982;7.032;2022-08-02T10:04:41;42.34;22.32
68177;DHT22;56478;50.982;7.032;2022-08-02T10:07:07;42.48;21.94
68177;DHT22;56478;50.982;7.032;2022-08-02T10:09:33;42.16;23.63
68177;DHT22;56478;50.982;7.032;2022-08-02T10:11:58;41.69;23.54
68177;DHT22;56478;50.982;7.032;2022-08-02T10:14:24;41.49;23.24
68177;DHT22;56478;50.982;7.032;2022-08-02T10:16:50;41.43;23.89
68177;DHT22;56478;50.982;7.032;2022-08-02T10:19:17;41.96;22.50
68177;DHT22;56478;50.982;7.032;2022-08-02T10:21:44;42.50;21.35
68177;DHT22;56478;50.982;7.032;2022-08-02T10:26:37;39.53;24.88
68177;DHT22;56478;50.982;7.032;2022-08-02T10:29:03;37.97;26.44
68177;DHT22;56478;50.982;7.032;2022-08-02T10:31:38;37.67;26.09
68177;DHT22;56478;50.982;7.032;2022-08-02T10:34:07;36.84;26.62
68177;DHT22;56478;50.982;7.032;2022-08-02T10:36:33;35.83;32.18
68177;DHT22;56478;50.982;7.032;2022-08-02T10:39:00;34.98;31.42
68177;DHT22;56478;50.982;7.032;2022-08-02T10:41:38;35.50;31.50
68177;DHT22;56478;50.982;7.032;2022-08-02T10:44:04;34.99;31.39
68177;DHT22;56478;50.982;7.032;2022-08-02T10:46:30;34.43;31.24
68177;DHT22;56478;50.982;7.032;2022-08-02T10:51:24;33.73;33.46
68177;DHT22;56478;50.982;7.032;2022-08-02T10:54:10;33.43;35.00
68177;DHT22;56478;50.982;7.032;2022-08-02T10:56:44;33.23;37.93
68177;DHT22;56478;50.982;7.032;2022-08-02T10:59:26;35.67;31.04
68177;DHT22;56478;50.982;7.032;2022-08-02T11:01:53;37.24;29.23
68177;DHT22;56478;50.982;7.032;2022-08-02T11:04:26;37.85;27.68
68177;DHT22;56478;50.982;7.032;2022-08-02T11:07:14;37.81;26.99
68177;DHT22;56478;50.982;7.032;2022-08-02T11:09:44;38.21;25.53
68177;DHT22;56478;50.982;7.032;2022-08-02T11:12:16;37.98;26.79
68177;DHT22;56478;50.982;7.032;2022-08-02T11:14:43;37.24;26.33
68177;DHT22;56478;50.982;7.032;2022-08-02T11:17:09;36.81;29.27
68177;DHT22;56478;50.982;7.032;2022-08-02T11:20:12;36.80;28.50
68177;DHT22;56478;50.982;7.032;2022-08-02T11:22:20;37.02;27.84
68177;DHT22;56478;50.982;7.032;2022-08-02T11:24:45;36.81;29.02
68177;DHT22;56478;50.982;7.032;2022-08-02T11:27:20;37.11;27.17
68177;DHT22;56478;50.982;7.032;2022-08-02T11:29:46;37.31;26.71
68177;DHT22;56478;50.982;7.032;2022-08-02T11:32:21;36.27;29.07
68177;DHT22;56478;50.982;7.032;2022-08-02T11:34:47;35.66;27.88
68177;DHT22;56478;50.982;7.032;2022-08-02T11:37:26;34.86;29.94
68177;DHT22;56478;50.982;7.032;2022-08-02T11:39:51;34.40;28.83
68177;DHT22;56478;50.982;7.032;2022-08-02T11:42:17;34.81;28.99
68177;DHT22;56478;50.982;7.032;2022-08-02T11:44:42;35.16;27.86
68177;DHT22;56478;50.982;7.032;2022-08-02T11:47:08;35.14;29.34
68177;DHT22;56478;50.982;7.032;2022-08-02T11:49:34;35.21;30.56
68177;DHT22;56478;50.982;7.032;2022-08-02T11:52:02;34.57;29.89
68177;DHT22;56478;50.982;7.032;2022-08-02T11:54:32;34.64;29.17
68177;DHT22;56478;50.982;7.032;2022-08-02T11:59:36;33.61;31.59
68177;DHT22;56478;50.982;7.032;2022-08-02T12:02:03;34.11;31.25
68177;DHT22;56478;50.982;7.032;2022-08-02T12:04:28;34.59;30.71
68177;DHT22;56478;50.982;7.032;2022-08-02T12:06:54;34.47;31.04
68177;DHT22;56478;50.982;7.032;2022-08-02T12:09:20;34.80;31.33
68177;DHT22;56478;50.982;7.032;2022-08-02T12:11:47;34.79;33.22
68177;DHT22;56478;50.982;7.032;2022-08-02T12:14:12;34.68;28.41
68177;DHT22;56478;50.982;7.032;2022-08-02T12:16:38;34.13;31.41
68177;DHT22;56478;50.982;7.032;2022-08-02T12:19:23;34.39;31.42
68177;DHT22;56478;50.982;7.032;2022-08-02T12:24:37;34.40;30.90
68177;DHT22;56478;50.982;7.032;2022-08-02T12:27:03;34.38;30.21
68177;DHT22;56478;50.982;7.032;2022-08-02T12:29:32;34.23;31.09
68177;DHT22;56478;50.982;7.032;2022-08-02T12:31:58;33.77;31.17
68177;DHT22;56478;50.982;7.032;2022-08-02T12:34:24;33.54;32.23
68177;DHT22;56478;50.982;7.032;2022-08-02T12:36:56;32.73;32.99
68177;DHT22;56478;50.982;7.032;2022-08-02T12:39:31;32.98;34.85
68177;DHT22;56478;50.982;7.032;2022-08-02T12:41:57;32.64;33.80
68177;DHT22;56478;50.982;7.032;2022-08-02T12:44:22;32.73;33.94
68177;DHT22;56478;50.982;7.032;2022-08-02T12:46:57;33.09;35.41
68177;DHT22;56478;50.982;7.032;2022-08-02T12:49:22;32.85;35.83
68177;DHT22;56478;50.982;7.032;2022-08-02T12:51:47;32.87;33.69
68177;DHT22;56478;50.982;7.032;2022-08-02T12:56:38;33.00;35.37
68177;DHT22;56478;50.982;7.032;2022-08-02T12:59:03;33.59;33.22
68177;DHT22;56478;50.982;7.032;2022-08-02T13:01:29;33.76;33.75
68177;DHT22;56478;50.982;7.032;2022-08-02T13:03:55;33.86;33.92
68177;DHT22;56478;50.982;7.032;2022-08-02T13:06:21;33.86;33.32
68177;DHT22;56478;50.982;7.032;2022-08-02T13:08:47;33.35;32.86
68177;DHT22;56478;50.982;7.032;2022-08-02T13:11:12;33.14;31.95
68177;DHT22;56478;50.982;7.032;2022-08-02T13:13:38;32.87;33.02
68177;DHT22;56478;50.982;7.032;2022-08-02T13:16:03;33.09;34.38
68177;DHT22;56478;50.982;7.032;2022-08-02T13:18:28;33.14;32.85
68177;DHT22;56478;50.982;7.032;2022-08-02T13:20:54;32.87;33.62
68177;DHT22;56478;50.982;7.032;2022-08-02T13:23:19;33.32;33.84
68177;DHT22;56478;50.982;7.032;2022-08-02T13:25:45;33.27;33.96
68177;DHT22;56478;50.982;7.032;2022-08-02T13:28:10;33.39;32.71
68177;DHT22;56478;50.982;7.032;2022-08-02T13:30:35;33.35;32.35
68177;DHT22;56478;50.982;7.032;2022-08-02T13:33:01;33.37;31.73
68177;DHT22;56478;50.982;7.032;2022-08-02T13:35:26;33.49;32.99
68177;DHT22;56478;50.982;7.032;2022-08-02T13:37:52;33.21;35.88
68177;DHT22;56478;50.982;7.032;2022-08-02T13:40:17;33.23;33.09
68177;DHT22;56478;50.982;7.032;2022-08-02T13:42:42;33.08;32.73
68177;DHT22;56478;50.982;7.032;2022-08-02T13:45:08;32.85;32.46
68177;DHT22;56478;50.982;7.032;2022-08-02T13:47:36;32.87;32.34
68177;DHT22;56478;50.982;7.032;2022-08-02T13:50:02;32.78;36.54
68177;DHT22;56478;50.982;7.032;2022-08-02T13:52:27;32.73;34.12
68177;DHT22;56478;50.982;7.032;2022-08-02T13:54:53;32.88;33.56
68177;DHT22;56478;50.982;7.032;2022-08-02T13:57:18;33.15;32.13
68177;DHT22;56478;50.982;7.032;2022-08-02T13:59:44;32.63;32.28
68177;DHT22;56478;50.982;7.032;2022-08-02T14:02:09;32.59;33.84
68177;DHT22;56478;50.982;7.032;2022-08-02T14:04:35;32.78;34.17
68177;DHT22;56478;50.982;7.032;2022-08-02T14:07:03;32.84;33.86
68177;DHT22;56478;50.982;7.032;2022-08-02T14:09:28;32.98;33.29
68177;DHT22;56478;50.982;7.032;2022-08-02T14:11:57;33.09;32.60
68177;DHT22;56478;50.982;7.032;2022-08-02T14:14:22;33.00;33.68
68177;DHT22;56478;50.982;7.032;2022-08-02T14:16:48;33.08;32.88
68177;DHT22;56478;50.982;7.032;2022-08-02T14:19:13;33.16;32.00
68177;DHT22;56478;50.982;7.032;2022-08-02T14:21:39;33.35;31.97
68177;DHT22;56478;50.982;7.032;2022-08-02T14:24:04;33.12;32.57
68177;DHT22;56478;50.982;7.032;2022-08-02T14:26:30;33.16;31.96
68177;DHT22;56478;50.982;7.032;2022-08-02T14:28:55;33.04;32.18
68177;DHT22;56478;50.982;7.032;2022-08-02T14:31:20;32.91;32.81
68177;DHT22;56478;50.982;7.032;2022-08-02T14:33:46;32.95;32.43
68177;DHT22;56478;50.982;7.032;2022-08-02T14:36:11;32.70;33.22
68177;DHT22;56478;50.982;7.032;2022-08-02T14:38:36;32.59;35.67
68177;DHT22;56478;50.982;7.032;2022-08-02T14:41:02;32.95;32.20
68177;DHT22;56478;50.982;7.032;2022-08-02T14:43:27;32.97;32.56
68177;DHT22;56478;50.982;7.032;2022-08-02T14:46:11;32.97;32.53
68177;DHT22;56478;50.982;7.032;2022-08-02T14:48:37;32.59;33.26
68177;DHT22;56478;50.982;7.032;2022-08-02T14:51:02;32.60;33.23
68177;DHT22;56478;50.982;7.032;2022-08-02T14:53:27;32.57;32.82
68177;DHT22;56478;50.982;7.032;2022-08-02T14:55:53;32.33;32.88
68177;DHT22;56478;50.982;7.032;2022-08-02T14:58:18;32.18;34.22
68177;DHT22;56478;50.982;7.032;2022-08-02T15:00:43;32.43;33.51
68177;DHT22;56478;50.982;7.032;2022-08-02T15:03:09;32.55;34.27
68177;DHT22;56478;50.982;7.032;2022-08-02T15:05:35;32.52;33.64
68177;DHT22;56478;50.982;7.032;2022-08-02T15:08:00;32.30;34.79
68177;DHT22;56478;50.982;7.032;2022-08-02T15:10:26;32.33;32.41
68177;DHT22;56478;50.982;7.032;2022-08-02T15:12:51;32.15;33.74
68177;DHT22;56478;50.982;7.032;2022-08-02T15:15:17;31.92;33.23
68177;DHT22;56478;50.982;7.032;2022-08-02T15:17:42;31.84;33.95
68177;DHT22;56478;50.982;7.032;2022-08-02T15:20:08;31.67;34.16
68177;DHT22;56478;50.982;7.032;2022-08-02T15:22:33;31.70;34.99
68177;DHT22;56478;50.982;7.032;2022-08-02T15:24:58;31.70;34.43
68177;DHT22;56478;50.982;7.032;2022-08-02T15:27:24;31.63;34.84
68177;DHT22;56478;50.982;7.032;2022-08-02T15:29:50;31.64;33.77
68177;DHT22;56478;50.982;7.032;2022-08-02T15:32:15;31.53;34.09
68177;DHT22;56478;50.982;7.032;2022-08-02T15:34:42;31.43;34.13
68177;DHT22;56478;50.982;7.032;2022-08-02T15:37:08;31.43;34.04
68177;DHT22;56478;50.982;7.032;2022-08-02T15:39:33;31.09;34.23
68177;DHT22;56478;50.982;7.032;2022-08-02T15:41:59;31.12;34.75
68177;DHT22;56478;50.982;7.032;2022-08-02T15:44:24;31.25;34.78
68177;DHT22;56478;50.982;7.032;2022-08-02T15:46:50;31.23;34.83
68177;DHT22;56478;50.982;7.032;2022-08-02T15:49:16;31.22;35.27
68177;DHT22;56478;50.982;7.032;2022-08-02T15:51:41;31.08;34.80
68177;DHT22;56478;50.982;7.032;2022-08-02T15:54:06;31.18;34.78
68177;DHT22;56478;50.982;7.032;2022-08-02T15:56:32;30.87;34.69
68177;DHT22;56478;50.982;7.032;2022-08-02T15:58:57;31.03;35.43
68177;DHT22;56478;50.982;7.032;2022-08-02T16:01:22;30.99;35.06
68177;DHT22;56478;50.982;7.032;2022-08-02T16:03:48;30.94;35.44